Time;durP1;ratioP1;P1;durP2;ratioP2;P2;SDS_P1;SDS_P2;PMS_P1;PMS_P2;Temp;Humidity;BMP_temperature;BMP_pressure;BME280_temperature;BME280_humidity;BME280_pressure;Samples;Min_cycle;Max_cycle;Signal;HPM_P1;HPM_P2
2022/04/01 00:00:15;;;;;;;1.35;1.25;;;;;;;3.60;100.00;99967.69;7386486;19;20019;-81
2022/04/01 00:02:44;;;;;;;1.00;1.00;;;;;;;3.59;100.00;99966.16;7389704;19;20011;-81
2022/04/01 00:05:11;;;;;;;1.20;1.15;;;;;;;3.59;100.00;99964.19;7390124;19;20021;-81
2022/04/01 00:07:40;;;;;;;1.77;1.42;;;;;;;3.61;100.00;99969.25;7391320;19;20082;-80
2022/04/01 00:10:08;;;;;;;0.85;0.85;;;;;;;3.66;100.00;99966.00;7390753;19;20022;-83
2022/04/01 00:12:42;;;;;;;1.40;1.30;;;;;;;3.64;100.00;99963.66;7389527;19;20026;-82
2022/04/01 00:15:12;;;;;;;0.70;0.70;;;;;;;3.59;100.00;99958.69;7387620;19;20015;-81
2022/04/01 00:17:43;;;;;;;2.83;1.10;;;;;;;3.53;100.00;99956.84;7388955;19;20018;-82
2022/04/01 00:20:12;;;;;;;1.33;1.33;;;;;;;3.50;100.00;99963.19;7390538;19;20860;-82
2022/04/01 00:22:39;;;;;;;0.73;0.73;;;;;;;3.50;100.00;99963.19;7394598;19;20603;-82
2022/04/01 00:25:06;;;;;;;5.00;1.85;;;;;;;3.51;100.00;99959.25;7392231;19;20022;-82
2022/04/01 00:27:33;;;;;;;2.75;0.98;;;;;;;3.48;100.00;99969.13;7392276;19;20021;-82
2022/04/01 00:29:59;;;;;;;1.02;1.02;;;;;;;3.46;100.00;99965.25;7391093;19;20602;-82
2022/04/01 00:32:25;;;;;;;1.52;1.42;;;;;;;3.42;100.00;99967.31;7392552;19;20025;-82
2022/04/01 00:34:52;;;;;;;0.88;0.88;;;;;;;3.35;100.00;99978.44;7391512;19;20093;-82
2022/04/01 00:37:18;;;;;;;19.08;1.65;;;;;;;3.31;100.00;99972.25;7386115;19;20006;-81
2022/04/01 00:39:45;;;;;;;0.85;0.85;;;;;;;3.24;100.00;99983.38;7390494;19;20018;-81
2022/04/01 00:42:12;;;;;;;0.90;0.90;;;;;;;3.20;100.00;99985.44;7394427;19;20077;-82
2022/04/01 00:44:39;;;;;;;1.20;1.20;;;;;;;3.14;100.00;99978.88;7397180;19;20015;-90
2022/04/01 00:47:09;;;;;;;8.30;1.30;;;;;;;3.12;100.00;99978.53;7401463;19;20014;-87
2022/04/01 00:49:36;;;;;;;0.98;0.98;;;;;;;3.10;100.00;99978.16;7400921;19;20035;-93
2022/04/01 00:52:06;;;;;;;0.50;0.50;;;;;;;3.06;100.00;99978.22;7400988;19;20018;-91
2022/04/01 00:54:34;;;;;;;1.10;1.10;;;;;;;3.00;100.00;99975.19;7401746;19;20010;-88
2022/04/01 00:57:03;;;;;;;1.10;1.10;;;;;;;2.97;100.00;99980.75;7401498;19;20006;-92
2022/04/01 00:59:30;;;;;;;1.25;1.25;;;;;;;2.89;100.00;99979.31;7400194;19;20027;-86
2022/04/01 01:01:56;;;;;;;1.05;1.05;;;;;;;2.84;100.00;99977.81;7399327;19;20022;-88
2022/04/01 01:04:22;;;;;;;0.80;0.80;;;;;;;2.83;100.00;99983.75;7398087;19;20760;-85
2022/04/01 01:06:51;;;;;;;1.13;1.13;;;;;;;2.81;100.00;99988.91;7396448;19;20033;-89
2022/04/01 01:09:19;;;;;;;1.20;1.20;;;;;;;2.80;100.00;99982.63;7399226;19;20023;-92
2022/04/01 01:11:49;;;;;;;0.90;0.90;;;;;;;2.82;100.00;99987.69;7399385;19;20078;-88
2022/04/01 01:14:31;;;;;;;0.93;0.93;;;;;;;2.91;100.00;99979.69;7395467;19;20028;-93
2022/04/01 01:17:01;;;;;;;0.93;0.93;;;;;;;2.96;100.00;99979.97;7396469;19;20018;-89
2022/04/01 01:19:30;;;;;;;1.17;1.17;;;;;;;3.00;100.00;99988.16;7398394;19;20028;-88
2022/04/01 01:21:57;;;;;;;1.20;1.20;;;;;;;3.08;100.00;99986.81;7399256;19;20006;-89
2022/04/01 01:24:36;;;;;;;1.17;1.17;;;;;;;3.23;100.00;99992.84;7397428;19;20023;-90
2022/04/01 01:27:07;;;;;;;1.08;1.08;;;;;;;3.30;100.00;99982.47;7395091;19;20011;-90
2022/04/01 01:29:39;;;;;;;1.17;1.17;;;;;;;3.35;100.00;99979.22;7398000;19;20023;-90
2022/04/01 01:32:09;;;;;;;0.95;0.95;;;;;;;3.41;100.00;99985.78;7399830;19;20014;-90
2022/04/01 01:34:39;;;;;;;1.15;1.15;;;;;;;3.40;100.00;99997.22;7397913;19;20034;-90
2022/04/01 01:37:05;;;;;;;1.20;1.20;;;;;;;3.34;100.00;99999.69;7393935;19;20018;-84
2022/04/01 01:39:31;;;;;;;1.00;1.00;;;;;;;3.31;100.00;100006.06;7394531;19;20022;-82
2022/04/01 01:41:57;;;;;;;1.30;1.30;;;;;;;3.33;100.00;100002.88;7390172;19;20029;-81
2022/04/01 01:44:24;;;;;;;0.85;0.85;;;;;;;3.35;100.00;100003.22;7389323;19;20105;-81
2022/04/01 01:46:51;;;;;;;6.07;2.10;;;;;;;3.42;100.00;100006.59;7385808;19;20532;-81
2022/04/01 01:49:20;;;;;;;1.20;1.20;;;;;;;3.53;100.00;100000.91;7388200;19;20015;-80
2022/04/01 01:54:49;;;;;;;1.05;1.05;;;;;;;3.77;100.00;100005.09;7389001;19;20014;-80
2022/04/01 01:57:24;;;;;;;1.10;1.10;;;;;;;3.82;100.00;100007.34;7389065;19;20029;-80
2022/04/01 01:59:51;;;;;;;1.17;1.17;;;;;;;3.88;100.00;100007.66;7387820;19;20021;-81
2022/04/01 02:02:18;;;;;;;0.90;0.90;;;;;;;3.88;100.00;100005.66;7391685;19;20607;-80
2022/04/01 02:04:49;;;;;;;0.63;0.63;;;;;;;3.85;100.00;99998.25;7387016;19;20270;-82
2022/04/01 02:07:15;;;;;;;0.98;0.98;;;;;;;3.74;100.00;100005.97;7386580;19;20014;-81
2022/04/01 02:09:46;;;;;;;10.45;1.13;;;;;;;3.70;100.00;100003.25;7389996;19;20015;-80
2022/04/01 02:12:13;;;;;;;0.90;0.90;;;;;;;3.63;100.00;100005.41;7389646;19;20011;-81
2022/04/01 02:14:39;;;;;;;0.70;0.70;;;;;;;3.57;100.00;100001.59;7388267;19;20260;-81
2022/04/01 02:17:06;;;;;;;1.05;1.05;;;;;;;3.52;100.00;100004.84;7388022;19;20037;-81
2022/04/01 02:19:32;;;;;;;1.00;1.00;;;;;;;3.45;100.00;100005.75;7387186;19;20014;-80
2022/04/01 02:22:00;;;;;;;0.43;0.43;;;;;;;3.45;100.00;100008.50;7389433;19;20106;-81
2022/04/01 02:24:31;;;;;;;4.75;1.75;;;;;;;3.48;100.00;100012.41;7386681;19;20014;-81
2022/04/01 02:26:57;;;;;;;1.15;1.13;;;;;;;3.54;100.00;100007.94;7384133;19;20430;-81
2022/04/01 02:29:24;;;;;;;0.70;0.70;;;;;;;3.61;100.00;100018.81;7386913;19;20062;-81
2022/04/01 02:32:13;;;;;;;0.60;0.60;;;;;;;3.68;100.00;100007.66;7387234;19;20010;-81
2022/04/01 02:35:10;;;;;;;3.25;1.27;;;;;;;3.69;100.00;100020.22;7384834;19;20010;-80
2022/04/01 02:37:40;;;;;;;2.17;1.05;;;;;;;3.70;100.00;100010.78;7381084;19;20017;-80
2022/04/01 02:40:09;;;;;;;0.90;0.90;;;;;;;3.63;100.00;100005.41;7380165;19;20110;-80
2022/04/01 02:42:35;;;;;;;5.25;0.63;;;;;;;3.62;100.00;100009.34;7383094;19;20011;-80
2022/04/01 02:45:02;;;;;;;0.77;0.77;;;;;;;3.55;100.00;100015.00;7383403;19;20011;-80
2022/04/01 02:47:28;;;;;;;0.45;0.45;;;;;;;3.55;100.00;100015.00;7385212;19;20049;-80
2022/04/01 02:49:54;;;;;;;0.93;0.93;;;;;;;3.54;100.00;100021.72;7387147;19;20022;-80
2022/04/01 02:52:21;;;;;;;1.00;1.00;;;;;;;3.57;100.00;100020.88;7387320;19;20006;-79
2022/04/01 02:54:47;;;;;;;1.40;1.40;;;;;;;3.64;100.00;100012.44;7385163;19;20019;-80
2022/04/01 02:57:14;;;;;;;1.13;1.13;;;;;;;3.64;100.00;100023.47;7386092;19;20029;-80
2022/04/01 02:59:42;;;;;;;0.52;0.52;;;;;;;3.67;100.00;100025.38;7385099;19;20010;-80
2022/04/01 03:02:09;;;;;;;0.90;0.90;;;;;;;3.66;100.00;100016.34;7388159;19;20018;-80
2022/04/01 03:04:35;;;;;;;0.95;0.95;;;;;;;3.71;100.00;100017.81;7384622;19;20089;-80
2022/04/01 03:07:02;;;;;;;0.82;0.82;;;;;;;3.78;100.00;100025.94;7383205;19;20042;-80
2022/04/01 03:09:30;;;;;;;0.82;0.82;;;;;;;3.77;100.00;100027.13;7384876;19;20015;-80
2022/04/01 03:12:07;;;;;;;0.57;0.57;;;;;;;3.75;100.00;100024.81;7386024;19;20099;-80
2022/04/01 03:14:49;;;;;;;0.90;0.90;;;;;;;3.71;100.00;100024.09;7386453;19;20033;-80
2022/04/01 03:17:34;;;;;;;0.75;0.75;;;;;;;3.70;100.00;100022.53;7386098;19;20018;-80
2022/04/01 03:20:13;;;;;;;0.90;0.90;;;;;;;3.76;100.00;100031.88;7384594;19;20035;-80
2022/04/01 03:22:41;;;;;;;3.80;0.70;;;;;;;3.80;100.00;100029.81;7387495;19;20025;-80
2022/04/01 03:25:13;;;;;;;0.93;0.93;;;;;;;3.82;100.00;100032.16;7384027;19;20056;-80
2022/04/01 03:27:52;;;;;;;1.45;1.45;;;;;;;3.79;100.00;100035.75;7383639;19;20018;-80
2022/04/01 03:30:18;;;;;;;0.73;0.73;;;;;;;3.73;100.00;100027.22;7383894;19;20015;-80
2022/04/01 03:32:47;;;;;;;0.90;0.90;;;;;;;3.68;100.00;100018.69;7387286;19;20507;-80
2022/04/01 03:35:18;;;;;;;3.22;1.30;;;;;;;3.57;100.00;100029.88;7384952;19;20010;-80
2022/04/01 03:37:45;;;;;;;1.08;1.08;;;;;;;3.44;100.00;100019.97;7386436;19;20018;-80
2022/04/01 03:40:16;;;;;;;0.43;0.43;;;;;;;3.33;100.00;100027.63;7389791;19;20014;-80
2022/04/01 03:42:45;;;;;;;0.80;0.73;;;;;;;3.27;100.00;100021.06;7392980;19;20046;-80
2022/04/01 03:45:13;;;;;;;0.70;0.70;;;;;;;3.25;100.00;100032.47;7390617;19;20047;-80
2022/04/01 03:48:17;;;;;;;0.90;0.90;;;;;;;3.25;100.00;100040.00;7390510;19;20014;-80
2022/04/01 03:50:50;;;;;;;0.60;0.60;;;;;;;3.24;100.00;100032.91;7390056;19;20011;-80
2022/04/01 03:53:23;;;;;;;1.27;1.27;;;;;;;3.23;100.00;100034.88;7388823;19;20090;-80
2022/04/01 03:55:50;;;;;;;0.38;0.38;;;;;;;3.22;100.00;100029.81;7391522;19;20020;-80
2022/04/01 03:58:26;;;;;;;0.65;0.65;;;;;;;3.25;100.00;100034.47;7392288;19;20018;-80
2022/04/01 04:01:11;;;;;;;0.80;0.80;;;;;;;3.19;100.00;100036.16;7392545;19;20015;-80
2022/04/01 04:03:39;;;;;;;0.75;0.75;;;;;;;3.14;100.00;100036.66;7394920;19;20404;-79
2022/04/01 04:06:10;;;;;;;0.80;0.80;;;;;;;3.15;100.00;100032.69;7390100;19;20133;-80
2022/04/01 04:08:37;;;;;;;;;;;;;;;3.14;100.00;100040.16;7391753;19;20017;-79
2022/04/01 04:11:05;;;;;;;13.63;3.33;;;;;;;3.11;100.00;100042.97;7391269;19;19918;-80
2022/04/01 04:13:56;;;;;;;1.05;1.05;;;;;;;3.05;100.00;100046.22;7389425;19;20481;-79
2022/04/01 04:16:32;;;;;;;1.33;1.30;;;;;;;2.95;100.00;100046.41;7389010;19;20031;-79
2022/04/01 04:19:04;;;;;;;1.25;1.25;;;;;;;2.92;100.00;100050.75;7390235;19;20014;-80
2022/04/01 04:21:49;;;;;;;1.00;1.00;;;;;;;2.90;100.00;100064.16;7392232;19;20081;-80
2022/04/01 04:24:28;;;;;;;1.05;1.05;;;;;;;2.89;100.00;100068.13;7390045;19;20014;-80
2022/04/01 04:27:17;;;;;;;1.00;1.00;;;;;;;2.90;100.00;100080.66;7388369;19;20022;-79
2022/04/01 04:29:50;;;;;;;0.90;0.90;;;;;;;2.87;100.00;100072.47;7389498;19;20018;-79
2022/04/01 04:32:56;;;;;;;1.33;1.33;;;;;;;2.92;100.00;100072.75;7389439;19;20282;-80
2022/04/01 04:35:25;;;;;;;1.27;1.27;;;;;;;2.92;100.00;100083.75;7389029;19;20014;-80
2022/04/01 04:37:55;;;;;;;0.52;0.52;;;;;;;2.93;100.00;100079.81;7388020;19;20019;-80
2022/04/01 04:40:22;;;;;;;0.63;0.63;;;;;;;2.92;100.00;100072.00;7389609;19;20018;-79
2022/04/01 04:42:58;;;;;;;0.80;0.80;;;;;;;2.94;100.00;100075.91;7393788;19;20031;-80
2022/04/01 04:45:27;;;;;;;1.23;1.23;;;;;;;2.94;100.00;100081.41;7389199;19;20026;-80
2022/04/01 04:47:55;;;;;;;1.35;1.35;;;;;;;3.03;100.00;100072.59;7390897;19;20056;-79
2022/04/01 04:50:23;;;;;;;0.80;0.80;;;;;;;3.05;100.00;100075.72;7389609;19;20035;-80
2022/04/01 04:52:53;;;;;;;0.77;0.77;;;;;;;3.06;100.00;100067.03;7391266;19;20021;-80
2022/04/01 04:55:20;;;;;;;1.83;1.75;;;;;;;3.11;100.00;100074.03;7388738;19;20018;-80
2022/04/01 04:58:02;;;;;;;1.17;1.17;;;;;;;3.14;100.00;100077.91;7389038;19;20023;-80
2022/04/01 05:00:28;;;;;;;1.17;1.17;;;;;;;3.21;100.00;100078.56;7389205;19;20010;-80
2022/04/01 05:03:38;;;;;;;0.63;0.63;;;;;;;3.25;100.00;100071.00;7391061;19;20015;-80
2022/04/01 05:06:07;;;;;;;0.93;0.93;;;;;;;3.31;100.00;100072.09;7385412;19;20037;-80
2022/04/01 05:09:15;;;;;;;1.00;1.00;;;;;;;3.32;100.00;100078.38;7390217;19;20082;-79
2022/04/01 05:12:04;;;;;;;1.08;1.08;;;;;;;3.29;100.00;100085.47;7390280;19;20014;-80
2022/04/01 05:14:59;;;;;;;0.55;0.55;;;;;;;3.28;100.00;100088.66;7389001;19;20014;-80
2022/04/01 05:17:35;;;;;;;0.80;0.80;;;;;;;3.23;100.00;100095.41;7388393;19;20078;-80
2022/04/01 05:20:15;;;;;;;1.00;1.00;;;;;;;3.20;100.00;100092.75;7386709;19;20017;-80
2022/04/01 05:23:11;;;;;;;3.97;1.40;;;;;;;3.14;100.00;100094.44;7391091;19;20015;-81
2022/04/01 05:25:55;;;;;;;1.65;0.85;;;;;;;3.07;100.00;100096.09;7387540;19;20058;-81
2022/04/01 05:29:01;;;;;;;2.55;0.70;;;;;;;3.05;100.00;100098.47;7385888;19;20022;-81
2022/04/01 05:31:37;;;;;;;0.90;0.77;;;;;;;3.07;100.00;100101.59;7388385;19;20047;-80
2022/04/01 05:34:18;;;;;;;1.63;1.52;;;;;;;3.11;100.00;100103.50;7390956;19;20014;-80
2022/04/01 05:36:46;;;;;;;;;;;;;;;3.07;100.00;100107.09;7387499;19;20011;-80
2022/04/01 05:39:14;;;;;;;0.82;0.82;;;;;;;3.06;100.00;100104.75;7384755;19;19919;-78
2022/04/01 05:41:46;;;;;;;0.80;0.80;;;;;;;3.05;100.00;100111.47;7387446;19;20014;-79
2022/04/01 05:44:13;;;;;;;0.65;0.65;;;;;;;2.99;100.00;100105.66;7386053;19;20041;-79
2022/04/01 05:46:44;;;;;;;0.85;0.85;;;;;;;2.98;100.00;100112.38;7386168;19;20022;-80
2022/04/01 05:49:13;;;;;;;1.25;1.25;;;;;;;2.99;100.00;100118.63;7387289;19;20015;-79
2022/04/01 05:51:40;;;;;;;0.90;0.90;;;;;;;3.03;100.00;100125.63;7388571;19;20060;-79
2022/04/01 05:54:08;;;;;;;1.40;1.40;;;;;;;3.03;100.00;100122.88;7389117;19;20016;-79
2022/04/01 05:56:38;;;;;;;1.05;1.05;;;;;;;3.05;100.00;100120.47;7385531;19;20529;-80
2022/04/01 05:59:04;;;;;;;1.20;1.20;;;;;;;3.03;100.00;100128.38;7385939;19;20022;-80
2022/04/01 06:01:44;;;;;;;0.75;0.75;;;;;;;3.01;100.00;100141.78;7387852;19;20031;-79
2022/04/01 06:04:39;;;;;;;1.10;1.10;;;;;;;3.02;100.00;100142.56;7390855;19;20029;-79
2022/04/01 06:07:21;;;;;;;1.25;1.25;;;;;;;2.95;100.00;100142.66;7385429;19;20022;-79
2022/04/01 06:09:56;;;;;;;0.70;0.70;;;;;;;2.95;100.00;100143.44;7387184;19;20481;-79
2022/04/01 06:13:21;;;;;;;1.10;1.10;;;;;;;2.95;100.00;100143.44;7384950;19;20441;-79
2022/04/01 06:16:31;;;;;;;1.00;1.00;;;;;;;2.97;100.00;100154.81;7388534;19;20078;-80
2022/04/01 06:19:23;;;;;;;0.93;0.93;;;;;;;3.04;100.00;100162.19;7384594;19;20010;-79
2022/04/01 06:22:20;;;;;;;0.93;0.93;;;;;;;3.07;100.00;100167.59;7388572;19;20361;-79
2022/04/01 06:25:16;;;;;;;0.93;0.93;;;;;;;3.09;100.00;100164.47;7386126;19;20046;-79
2022/04/01 06:28:01;;;;;;;0.95;0.95;;;;;;;3.20;100.00;100176.09;7386323;19;20037;-80
2022/04/01 06:30:29;;;;;;;0.63;0.63;;;;;;;3.24;100.00;100178.75;7386154;19;20018;-81
2022/04/01 06:33:40;;;;;;;0.70;0.70;;;;;;;3.25;100.00;100177.59;7388772;19;20010;-79
2022/04/01 06:36:42;;;;;;;1.30;1.30;;;;;;;3.28;100.00;100173.97;7387375;19;20018;-79
2022/04/01 06:39:18;;;;;;;8.25;2.08;;;;;;;3.37;100.00;100174.22;7385518;19;20673;-80
2022/04/01 06:41:55;;;;;;;0.90;0.90;;;;;;;3.44;100.00;100180.41;7387715;19;20014;-79
2022/04/01 06:44:44;;;;;;;1.00;1.00;;;;;;;3.52;100.00;100178.28;7385700;19;20018;-79
2022/04/01 06:47:30;;;;;;;1.65;1.27;;;;;;;3.57;100.00;100189.59;7388788;19;20022;-79
2022/04/01 06:49:56;;;;;;;1.70;1.70;;;;;;;3.64;100.00;100188.69;7385153;19;20025;-80
2022/04/01 06:52:41;;;;;;;0.77;0.77;;;;;;;3.65;100.00;100191.03;7388918;19;20612;-79
2022/04/01 06:55:10;;;;;;;0.77;0.77;;;;;;;3.71;100.00;100200.38;7385365;19;20035;-80
2022/04/01 06:58:00;;;;;;;2.65;1.55;;;;;;;3.73;100.00;100197.19;7384069;19;20014;-79
2022/04/01 07:00:43;;;;;;;1.67;1.67;;;;;;;3.78;100.00;100199.47;7386025;19;20038;-79
2022/04/01 07:03:10;;;;;;;0.68;0.68;;;;;;;3.89;100.00;100202.81;7390084;19;20021;-80
2022/04/01 07:05:38;;;;;;;1.10;1.10;;;;;;;3.96;100.00;100205.44;7384626;19;20022;-79
2022/04/01 07:08:05;;;;;;;1.23;0.95;;;;;;;4.00;100.00;100211.66;7385707;19;20369;-79
2022/04/01 07:10:32;;;;;;;1.00;1.00;;;;;;;4.03;100.00;100216.31;7385634;19;20481;-80
2022/04/01 07:12:59;;;;;;;0.70;0.70;;;;;;;4.09;100.00;100219.34;7390661;19;20445;-79
2022/04/01 07:15:25;;;;;;;15.13;1.75;;;;;;;4.13;100.00;100220.84;7393469;19;20078;-79
2022/04/01 07:17:52;;;;;;;1.42;1.42;;;;;;;4.23;100.00;100228.13;7393868;19;20508;-80
2022/04/01 07:20:20;;;;;;;0.90;0.80;;;;;;;4.32;100.00;100227.56;7393763;19;20469;-79
2022/04/01 07:22:46;;;;;;;0.90;0.90;;;;;;;4.36;100.00;100229.06;7395493;19;20018;-79
2022/04/01 07:25:13;;;;;;;5.63;1.42;;;;;;;4.46;100.00;100233.56;7392479;19;20030;-79
2022/04/01 07:27:39;;;;;;;0.80;0.80;;;;;;;4.52;100.00;100242.91;7393219;19;20461;-79
2022/04/01 07:30:08;;;;;;;1.08;1.08;;;;;;;4.66;100.00;100241.06;7391687;19;20129;-79
2022/04/01 07:32:36;;;;;;;1.70;1.60;;;;;;;4.81;100.00;100253.38;7393332;19;20042;-80
2022/04/01 07:35:05;;;;;;;0.73;0.73;;;;;;;4.91;100.00;100252.34;7391908;19;20021;-79
2022/04/01 07:37:32;;;;;;;0.45;0.45;;;;;;;5.00;100.00;100244.25;7393537;19;20014;-79
2022/04/01 07:39:58;;;;;;;0.73;0.73;;;;;;;5.06;100.00;100242.53;7393492;19;20307;-80
2022/04/01 07:42:26;;;;;;;0.73;0.60;;;;;;;5.10;100.00;100252.31;7395742;19;20026;-80
2022/04/01 07:44:53;;;;;;;1.38;1.38;;;;;;;5.07;100.00;100244.88;7391558;19;20031;-81
2022/04/01 07:47:19;;;;;;;0.30;0.30;;;;;;;5.07;100.00;100255.13;7387948;19;20010;-79
2022/04/01 07:49:46;;;;;;;0.80;0.80;;;;;;;5.09;100.00;100247.22;7389911;19;20037;-80
2022/04/01 07:52:14;;;;;;;1.15;1.15;;;;;;;5.12;100.00;100255.41;7392675;19;20369;-80
2022/04/01 07:54:42;;;;;;;1.08;1.00;;;;;;;5.29;100.00;100262.50;7392286;19;20018;-80
2022/04/01 07:57:12;;;;;;;0.70;0.70;;;;;;;5.54;100.00;100255.63;7387971;19;20631;-79
2022/04/01 07:59:38;;;;;;;0.60;0.60;;;;;;;5.66;100.00;100261.22;7392536;19;20018;-80
2022/04/01 08:02:04;;;;;;;0.50;0.50;;;;;;;5.65;100.00;100267.94;7395023;19;20038;-81
2022/04/01 08:04:31;;;;;;;0.38;0.38;;;;;;;5.68;100.00;100269.06;7390776;19;20014;-80
2022/04/01 08:06:58;;;;;;;0.75;0.75;;;;;;;5.71;100.00;100277.28;7391162;19;20615;-50
2022/04/01 08:09:24;;;;;;;1.85;0.43;;;;;;;5.74;100.00;100272.91;7395891;19;20010;-50
2022/04/01 08:11:52;;;;;;;0.43;0.43;;;;;;;5.84;100.00;100280.16;7395596;19;20034;-50
2022/04/01 08:14:18;;;;;;;0.80;0.80;;;;;;;5.92;100.00;100282.31;7395106;19;20483;-51
2022/04/01 08:16:45;;;;;;;1.08;1.08;;;;;;;5.94;100.00;100268.84;7392271;19;20014;-50
2022/04/01 08:19:12;;;;;;;0.77;0.77;;;;;;;5.93;100.00;100272.78;7390000;19;20130;-50
2022/04/01 08:21:39;;;;;;;0.47;0.47;;;;;;;5.97;100.00;100279.03;7393594;19;20031;-50
2022/04/01 08:24:07;;;;;;;0.52;0.52;;;;;;;6.07;100.00;100282.72;7390995;19;20040;-51
2022/04/01 08:26:33;;;;;;;1.38;1.27;;;;;;;6.15;100.00;100283.31;7392624;19;20010;-50
2022/04/01 08:29:00;;;;;;;0.75;0.75;;;;;;;6.22;100.00;100283.13;7390831;19;20015;-50
2022/04/01 08:31:27;;;;;;;0.20;0.20;;;;;;;6.21;100.00;100284.34;7391815;19;20014;-50
2022/04/01 08:33:54;;;;;;;11.15;1.02;;;;;;;6.17;100.00;100283.66;7392453;19;20074;-51
2022/04/01 08:36:20;;;;;;;0.45;0.45;;;;;;;6.18;100.00;100290.72;7393147;19;20010;-51
2022/04/01 08:38:47;;;;;;;0.90;0.90;;;;;;;6.23;100.00;100295.75;7391769;19;20101;-50
2022/04/01 08:41:21;;;;;;;0.77;0.77;;;;;;;6.28;100.00;100289.69;7393918;19;20467;-51
2022/04/01 08:43:50;;;;;;;0.40;0.40;;;;;;;6.28;100.00;100292.47;7393245;19;20296;-51
2022/04/01 08:46:18;;;;;;;0.63;0.63;;;;;;;6.29;100.00;100296.75;7393023;19;20026;-51
2022/04/01 08:48:45;;;;;;;3.95;1.15;;;;;;;6.33;100.00;100300.22;7394162;19;20014;-51
2022/04/01 08:51:13;;;;;;;0.35;0.35;;;;;;;6.41;100.00;100299.59;7390693;19;20411;-50
2022/04/01 08:53:41;;;;;;;1.13;0.50;;;;;;;6.48;100.00;100302.16;7390643;19;20037;-50
2022/04/01 08:56:08;;;;;;;0.70;0.70;;;;;;;6.54;100.00;100294.88;7390703;19;20015;-50
2022/04/01 08:58:35;;;;;;;1.33;1.23;;;;;;;6.77;100.00;100302.16;7393918;19;20010;-50
2022/04/01 09:01:05;;;;;;;0.60;0.60;;;;;;;7.03;100.00;100303.78;7394370;19;20015;-50
2022/04/01 09:03:32;;;;;;;13.90;1.10;;;;;;;7.28;100.00;100298.25;7396423;19;20066;-50
2022/04/01 09:06:01;;;;;;;0.80;0.80;;;;;;;7.41;100.00;100304.56;7393354;19;20006;-51
2022/04/01 09:08:29;;;;;;;4.13;1.00;;;;;;;7.35;100.00;100309.13;7392795;19;20011;-51
2022/04/01 09:11:04;;;;;;;0.60;0.60;;;;;;;7.35;100.00;100308.34;7392797;19;20015;-51
2022/04/01 09:13:33;;;;;;;0.80;0.80;;;;;;;7.54;100.00;100315.66;7389708;19;20007;-51
2022/04/01 09:16:01;;;;;;;0.63;0.35;;;;;;;7.47;100.00;100305.56;7393735;19;20020;-51
2022/04/01 09:18:33;;;;;;;0.50;0.50;;;;;;;7.56;100.00;100314.00;7392508;19;20510;-51
2022/04/01 09:20:59;;;;;;;2.38;0.85;;;;;;;7.59;100.00;100315.09;7393542;19;20021;-51
2022/04/01 09:23:25;;;;;;;0.47;0.47;;;;;;;7.45;100.00;100308.00;7392832;19;20010;-50
2022/04/01 09:25:53;;;;;;;0.77;0.70;;;;;;;7.45;100.00;100308.00;7393172;19;20018;-50
2022/04/01 09:28:31;;;;;;;0.50;0.50;;;;;;;7.61;100.00;100302.38;7393815;19;20075;-50
2022/04/01 09:31:00;;;;;;;0.73;0.73;;;;;;;7.79;100.00;100299.03;7394003;19;20417;-50
2022/04/01 09:33:47;;;;;;;1.60;0.93;;;;;;;8.20;100.00;100307.16;7391817;19;20050;-50
2022/04/01 09:36:15;;;;;;;0.60;0.60;;;;;;;8.45;100.00;100306.31;7389155;19;20007;-50
2022/04/01 09:38:52;;;;;;;0.52;0.52;;;;;;;8.80;100.00;100307.81;7393145;19;20026;-50
2022/04/01 09:41:19;;;;;;;1.02;0.93;;;;;;;8.79;100.00;100297.16;7393508;19;20002;-50
2022/04/01 09:43:46;;;;;;;0.65;0.65;;;;;;;8.72;100.00;100300.97;7391735;19;20014;-51
2022/04/01 09:46:23;;;;;;;0.50;0.50;;;;;;;8.45;100.00;100305.53;7392826;19;20030;-49
2022/04/01 09:48:49;;;;;;;0.52;0.52;;;;;;;8.39;100.00;100291.47;7392118;19;20495;-49
2022/04/01 09:51:15;;;;;;;0.38;0.38;;;;;;;8.49;100.00;100289.53;7392978;19;20067;-49
2022/04/01 09:53:51;;;;;;;0.90;0.90;;;;;;;8.73;100.00;100310.06;7389980;19;20332;-49
2022/04/01 09:56:17;;;;;;;0.68;0.68;;;;;;;8.72;100.00;100297.41;7390744;19;20030;-49
2022/04/01 09:58:44;;;;;;;4.70;1.15;;;;;;;8.95;100.00;100311.63;7392200;19;20021;-49
2022/04/01 10:01:10;;;;;;;1.38;1.23;;;;;;;8.77;100.00;100317.03;7393815;19;20032;-49
2022/04/01 10:03:36;;;;;;;0.85;0.52;;;;;;;8.55;100.00;100302.41;7395224;19;20473;-49
2022/04/01 10:06:04;;;;;;;0.50;0.50;;;;;;;8.67;100.00;100306.31;7389921;19;20040;-49
2022/04/01 10:08:32;;;;;;;0.77;0.77;;;;;;;9.08;100.00;100301.19;7390697;19;20015;-49
2022/04/01 10:10:58;;;;;;;0.30;0.30;;;;;;;9.31;100.00;100311.06;7391544;19;20023;-50
2022/04/01 10:13:29;;;;;;;0.30;0.30;;;;;;;9.16;100.00;100310.03;7388427;19;20408;-49
2022/04/01 10:15:58;;;;;;;0.22;0.22;;;;;;;8.80;100.00;100307.03;7392531;19;20014;-49
2022/04/01 10:18:25;;;;;;;0.63;0.63;;;;;;;8.52;100.00;100319.94;7392877;19;20386;-49
2022/04/01 10:20:55;;;;;;;0.30;0.30;;;;;;;8.29;100.00;100318.34;7392952;19;20014;-50
2022/04/01 10:23:25;;;;;;;0.50;0.50;;;;;;;8.25;100.00;100325.22;7390534;19;20392;-50
2022/04/01 10:25:59;;;;;;;0.47;0.47;;;;;;;8.29;100.00;100321.13;7391595;19;20010;-49
2022/04/01 10:28:26;;;;;;;0.77;0.73;;;;;;;8.58;100.00;100323.69;7391261;19;20089;-49
2022/04/01 10:30:57;;;;;;;0.57;0.57;;;;;;;8.85;100.00;100329.47;7391089;19;20011;-51
2022/04/01 10:33:29;;;;;;;1.30;0.70;;;;;;;9.23;100.00;100325.66;7392658;19;20015;-50
2022/04/01 10:35:55;;;;;;;0.20;0.20;;;;;;;9.62;100.00;100319.34;7390587;19;20076;-50
2022/04/01 10:38:27;;;;;;;0.73;0.73;;;;;;;9.72;100.00;100312.63;7390516;19;20459;-50
2022/04/01 10:40:54;;;;;;;0.20;0.20;;;;;;;9.72;100.00;100323.75;7387442;19;20742;-51
2022/04/01 10:43:20;;;;;;;1.48;0.63;;;;;;;9.71;100.00;100327.75;7386908;19;20352;-50
2022/04/01 10:46:03;;;;;;;0.75;0.75;;;;;;;9.94;100.00;100327.19;7386322;19;20332;-50
2022/04/01 10:54:01;;;;;;;0.45;0.45;;;;;;;10.18;99.98;100322.63;7385705;19;20025;-50
2022/04/01 10:56:32;;;;;;;0.55;0.55;;;;;;;9.79;98.63;100329.00;7389641;19;20400;-50
2022/04/01 10:59:04;;;;;;;1.75;1.15;;;;;;;9.43;97.84;100323.28;7391145;19;20014;-50
2022/04/01 11:01:32;;;;;;;1.67;0.60;;;;;;;9.04;97.65;100319.22;7392322;19;20015;-50
2022/04/01 11:04:21;;;;;;;0.90;0.90;;;;;;;8.84;97.28;100322.34;7393009;19;20018;-50
2022/04/01 11:07:01;;;;;;;4.60;1.35;;;;;;;8.95;98.67;100321.94;7389526;19;20127;-50
2022/04/01 11:09:50;;;;;;;6.80;1.35;;;;;;;9.05;98.94;100313.22;7389085;19;20463;-50
2022/04/01 11:12:19;;;;;;;0.88;0.75;;;;;;;8.95;95.25;100328.28;7392834;19;20022;-50
2022/04/01 11:14:58;;;;;;;0.70;0.70;;;;;;;8.86;92.73;100319.88;7390600;19;20011;-49
2022/04/01 11:17:51;;;;;;;0.55;0.55;;;;;;;9.04;91.09;100319.22;7390151;19;20027;-50
2022/04/01 11:20:26;;;;;;;0.38;0.38;;;;;;;9.12;88.69;100310.19;7388219;19;20751;-50
2022/04/01 11:22:52;;;;;;;0.85;0.85;;;;;;;9.36;89.04;100309.66;7393078;19;20011;-50
2022/04/01 11:25:24;;;;;;;0.40;0.40;;;;;;;9.79;86.73;100313.09;7387998;19;20030;-50
2022/04/01 11:27:57;;;;;;;0.38;0.38;;;;;;;10.17;85.69;100321.09;7388625;19;20021;-50
2022/04/01 11:30:25;;;;;;;0.30;0.30;;;;;;;10.60;85.94;100304.13;7386803;19;20357;-50
2022/04/01 11:33:00;;;;;;;2.95;1.17;;;;;;;10.99;82.94;100302.38;7392144;19;20021;-50
2022/04/01 11:35:28;;;;;;;0.35;0.35;;;;;;;11.10;82.01;100307.44;7389000;19;20015;-50
2022/04/01 11:37:56;;;;;;;0.40;0.40;;;;;;;10.91;81.48;100312.31;7389117;19;20031;-50
2022/04/01 11:40:28;;;;;;;0.47;0.47;;;;;;;10.59;82.93;100316.47;7389880;19;20427;-50
2022/04/01 11:42:55;;;;;;;0.60;0.60;;;;;;;10.37;84.29;100307.50;7393362;19;20021;-50
2022/04/01 11:45:21;;;;;;;0.80;0.80;;;;;;;10.23;84.25;100313.69;7389125;19;20014;-50
2022/04/01 11:47:48;;;;;;;1.05;0.95;;;;;;;10.12;83.81;100315.34;7388772;19;20015;-50
2022/04/01 11:50:17;;;;;;;0.70;0.70;;;;;;;10.00;84.52;100314.25;7387200;19;20010;-50
2022/04/01 11:52:49;;;;;;;4.05;0.80;;;;;;;10.04;84.94;100312.09;7391984;19;20091;-50
2022/04/01 11:55:22;;;;;;;0.82;0.63;;;;;;;10.14;85.39;100305.31;7389415;19;20119;-50
2022/04/01 11:57:51;;;;;;;0.35;0.35;;;;;;;10.43;87.92;100300.09;7388336;19;20011;-50